createdAt,value
2018-05-24T00:02:23.753Z,18.10
2018-05-24T00:04:51.309Z,18.10
2018-05-24T00:07:18.864Z,18.00
2018-05-24T00:09:46.480Z,18.10
2018-05-24T00:12:14.035Z,18.10
2018-05-24T00:14:41.610Z,18.20
2018-05-24T00:17:09.173Z,18.20
2018-05-24T00:19:36.783Z,18.10
2018-05-24T00:22:04.345Z,18.00
2018-05-24T00:24:31.893Z,17.90
2018-05-24T00:26:59.494Z,17.90
2018-05-24T00:29:27.063Z,18.00
2018-05-24T00:31:55.403Z,17.80
2018-05-24T00:34:22.994Z,17.80
2018-05-24T00:36:50.551Z,17.90
2018-05-24T00:39:18.104Z,17.90
2018-05-24T00:41:45.659Z,17.80
2018-05-24T00:44:13.956Z,17.60
2018-05-24T00:46:42.311Z,17.60
2018-05-24T00:49:09.867Z,17.60
2018-05-24T00:51:37.452Z,17.50
2018-05-24T00:54:04.999Z,17.40
2018-05-24T00:56:32.612Z,17.40
2018-05-24T00:59:00.169Z,17.50
2018-05-24T01:01:27.724Z,17.30
2018-05-24T01:03:55.320Z,17.20
2018-05-24T01:06:22.916Z,17.20
2018-05-24T01:08:50.491Z,17.10
2018-05-24T01:11:18.826Z,16.90
2018-05-24T01:13:46.403Z,16.90
2018-05-24T01:16:13.990Z,16.90
2018-05-24T01:18:41.593Z,16.90
2018-05-24T01:21:09.169Z,17.00
2018-05-24T01:23:37.524Z,17.10
2018-05-24T01:26:05.099Z,17.10
2018-05-24T01:28:32.712Z,17.20
2018-05-24T01:31:01.010Z,17.40
2018-05-24T01:33:28.566Z,17.30
2018-05-24T01:35:56.108Z,17.30
2018-05-24T01:38:23.668Z,17.40
2018-05-24T01:40:51.222Z,17.40
2018-05-24T01:43:18.854Z,17.40
2018-05-24T01:45:47.168Z,17.30
2018-05-24T01:48:14.708Z,17.30
2018-05-24T01:50:42.256Z,17.30
2018-05-24T01:53:09.826Z,17.30
2018-05-24T01:55:37.447Z,17.40
2018-05-24T01:58:05.782Z,17.40
2018-05-24T02:00:33.296Z,17.40
2018-05-24T02:03:00.876Z,17.50
2018-05-24T02:05:29.208Z,17.50
2018-05-24T02:07:56.824Z,17.50
2018-05-24T02:10:24.361Z,17.50
2018-05-24T02:12:51.895Z,17.60
2018-05-24T02:15:20.210Z,17.60
2018-05-24T02:17:47.768Z,17.60
2018-05-24T02:20:15.344Z,17.70
2018-05-24T02:22:42.937Z,17.70
2018-05-24T02:25:10.493Z,17.70
2018-05-24T02:27:38.077Z,17.80
2018-05-24T02:30:05.764Z,17.90
2018-05-24T02:32:33.346Z,17.90
2018-05-24T02:35:00.927Z,18.00
2018-05-24T02:37:28.470Z,18.10
2018-05-24T02:39:56.022Z,18.10
2018-05-24T02:42:23.590Z,18.20
2018-05-24T02:44:51.167Z,18.30
2018-05-24T02:47:18.864Z,18.30
2018-05-24T02:49:47.137Z,18.30
2018-05-24T02:52:14.697Z,18.30
2018-05-24T02:54:42.266Z,18.30
2018-05-24T02:57:10.595Z,18.30
2018-05-24T02:59:38.151Z,18.30
2018-05-24T03:02:05.673Z,18.40
2018-05-24T03:04:33.275Z,18.40
2018-05-24T03:07:00.877Z,18.40
2018-05-24T03:09:28.445Z,18.50
2018-05-24T03:11:55.988Z,18.50
2018-05-24T03:14:24.395Z,18.60
2018-05-24T03:16:52.676Z,18.60
2018-05-24T03:19:20.208Z,18.50
2018-05-24T03:21:47.741Z,18.40
2018-05-24T03:24:15.332Z,17.90
2018-05-24T03:26:42.940Z,17.50
2018-05-24T03:29:11.297Z,16.80
2018-05-24T03:31:38.826Z,16.80
2018-05-24T03:34:06.368Z,16.80
2018-05-24T03:36:33.919Z,16.70
2018-05-24T03:39:01.474Z,16.50
2018-05-24T03:41:29.036Z,16.40
2018-05-24T03:43:56.640Z,16.40
2018-05-24T03:46:24.304Z,16.40
2018-05-24T03:48:52.020Z,16.30
2018-05-24T03:51:19.756Z,16.40
2018-05-24T03:53:47.294Z,16.40
2018-05-24T03:56:14.866Z,16.50
2018-05-24T03:58:42.381Z,16.50
2018-05-24T04:04:29.088Z,16.70
2018-05-24T04:06:56.646Z,16.60
2018-05-24T04:09:24.948Z,16.50
2018-05-24T04:11:52.551Z,16.50
2018-05-24T04:14:20.093Z,16.40
2018-05-24T04:16:47.632Z,16.40
2018-05-24T04:19:15.334Z,16.50
2018-05-24T04:21:43.645Z,16.50
2018-05-24T04:24:11.208Z,16.50
2018-05-24T04:26:38.752Z,16.50
2018-05-24T04:29:07.102Z,16.60
2018-05-24T04:31:34.627Z,16.50
2018-05-24T04:34:02.897Z,16.50
2018-05-24T04:36:30.492Z,16.50
2018-05-24T04:38:58.829Z,16.40
2018-05-24T04:41:26.483Z,16.40
2018-05-24T04:43:54.021Z,16.50
2018-05-24T04:46:22.371Z,16.50
2018-05-24T04:48:49.884Z,16.50
2018-05-24T04:51:18.199Z,16.50
2018-05-24T04:53:45.733Z,16.50
2018-05-24T04:56:13.433Z,16.40
2018-05-24T04:58:40.956Z,16.30
2018-05-24T05:01:08.640Z,16.20
2018-05-24T05:03:36.170Z,16.20
2018-05-24T05:06:03.724Z,16.20
2018-05-24T05:08:31.240Z,16.10
2018-05-24T05:10:58.842Z,16.00
2018-05-24T05:13:26.480Z,15.80
2018-05-24T05:15:54.012Z,15.60
2018-05-24T05:18:22.313Z,15.50
2018-05-24T05:20:49.859Z,15.50
2018-05-24T05:23:18.139Z,15.60
2018-05-24T05:25:46.516Z,15.60
2018-05-24T05:28:14.029Z,15.60
2018-05-24T05:30:41.649Z,15.50
2018-05-24T05:33:09.857Z,15.50
2018-05-24T05:35:37.425Z,15.50
2018-05-24T05:38:04.953Z,15.50
2018-05-24T05:40:32.483Z,15.50
2018-05-24T05:43:00.780Z,15.70
2018-05-24T05:45:29.100Z,15.80
2018-05-24T05:47:56.636Z,15.70
2018-05-24T05:50:24.140Z,15.80
2018-05-24T05:52:51.714Z,15.90
2018-05-24T05:55:19.211Z,15.80
2018-05-24T05:57:46.785Z,15.90
2018-05-24T06:00:14.303Z,15.80
2018-05-24T06:02:41.845Z,15.90
2018-05-24T06:05:09.397Z,15.80
2018-05-24T06:07:36.956Z,15.90
2018-05-24T06:10:04.492Z,15.80
2018-05-24T06:12:32.801Z,15.90
2018-05-24T06:15:00.311Z,15.90
2018-05-24T06:17:27.844Z,15.90
2018-05-24T06:19:55.364Z,15.80
2018-05-24T06:22:22.906Z,15.80
2018-05-24T06:24:50.432Z,15.80
2018-05-24T06:27:18.812Z,15.80
2018-05-24T06:29:46.705Z,15.80
2018-05-24T06:32:15.002Z,16.00
2018-05-24T06:34:43.396Z,16.00
2018-05-24T06:37:11.765Z,16.10
2018-05-24T06:39:39.328Z,16.10
2018-05-24T06:42:06.925Z,16.10
2018-05-24T06:44:34.517Z,16.20
2018-05-24T06:47:02.166Z,16.20
2018-05-24T06:49:29.728Z,16.30
2018-05-24T06:51:57.303Z,16.30
2018-05-24T06:54:24.839Z,16.30
2018-05-24T06:56:52.362Z,16.40
2018-05-24T06:59:20.688Z,16.30
2018-05-24T07:01:48.280Z,16.30
2018-05-24T07:04:15.833Z,16.50
2018-05-24T07:06:43.354Z,16.60
2018-05-24T07:09:11.652Z,16.60
2018-05-24T07:11:39.963Z,16.70
2018-05-24T07:14:07.491Z,16.70
2018-05-24T07:16:35.020Z,17.00
2018-05-24T07:19:02.610Z,17.10
2018-05-24T07:21:30.119Z,17.20
2018-05-24T07:23:58.426Z,16.80
2018-05-24T07:26:26.696Z,17.10
2018-05-24T07:28:55.078Z,17.30
2018-05-24T07:31:22.610Z,17.30
2018-05-24T07:33:50.141Z,17.60
2018-05-24T07:36:18.433Z,17.40
2018-05-24T07:38:47.043Z,17.50
2018-05-24T07:41:14.617Z,17.50
2018-05-24T07:43:42.144Z,17.90
2018-05-24T07:46:09.662Z,17.80
2018-05-24T07:48:37.212Z,18.30
2018-05-24T07:51:05.517Z,18.90
2018-05-24T07:53:33.062Z,18.80
2018-05-24T07:56:00.581Z,19.20
2018-05-24T07:58:28.166Z,19.70
2018-05-24T08:00:55.705Z,19.80
2018-05-24T08:03:23.274Z,19.60
2018-05-24T08:05:51.575Z,19.80
2018-05-24T08:08:19.163Z,19.80
2018-05-24T08:10:46.694Z,20.40
2018-05-24T08:13:14.985Z,20.40
2018-05-24T08:15:43.350Z,20.20
2018-05-24T08:18:10.855Z,20.20
2018-05-24T08:20:39.187Z,20.60
2018-05-24T08:23:06.721Z,20.60
2018-05-24T08:25:35.060Z,20.20
2018-05-24T08:28:02.571Z,20.20
2018-05-24T08:30:30.866Z,20.10
2018-05-24T08:32:59.152Z,20.70
2018-05-24T08:35:27.461Z,21.10
2018-05-24T08:37:54.973Z,21.00
2018-05-24T08:40:22.527Z,21.40
2018-05-24T08:42:50.068Z,21.90
2018-05-24T08:45:17.644Z,22.30
2018-05-24T08:47:45.157Z,23.90
2018-05-24T08:50:12.700Z,25.20
2018-05-24T08:52:40.219Z,25.60
2018-05-24T08:55:07.763Z,24.90
2018-05-24T08:57:35.316Z,24.70
2018-05-24T09:00:02.910Z,23.40
2018-05-24T09:02:30.408Z,24.30
2018-05-24T09:04:57.944Z,24.70
2018-05-24T09:07:25.464Z,25.50
2018-05-24T09:09:53.775Z,25.60
2018-05-24T09:12:22.320Z,24.60
2018-05-24T09:14:49.850Z,24.60
2018-05-24T09:17:17.365Z,24.80
2018-05-24T09:19:44.956Z,24.80
2018-05-24T09:22:13.593Z,23.40
2018-05-24T09:24:41.125Z,23.40
2018-05-24T09:27:08.748Z,23.20
2018-05-24T09:29:36.337Z,23.20
2018-05-24T09:32:04.003Z,23.10
2018-05-24T09:34:31.556Z,23.40
2018-05-24T09:36:59.103Z,23.50
2018-05-24T09:39:27.416Z,24.00
2018-05-24T09:41:54.941Z,24.00
2018-05-24T09:44:22.490Z,23.90
2018-05-24T09:46:50.049Z,23.50
2018-05-24T09:49:17.701Z,23.00
2018-05-24T09:51:45.240Z,23.20
2018-05-24T09:54:13.520Z,22.70
2018-05-24T09:56:41.086Z,22.70
2018-05-24T09:59:08.772Z,23.30
2018-05-24T10:01:36.385Z,23.80
2018-05-24T10:04:03.962Z,24.00
2018-05-24T10:06:31.652Z,23.50
2018-05-24T10:08:59.403Z,23.70
2018-05-24T10:11:27.018Z,24.30
2018-05-24T10:13:54.933Z,24.40
2018-05-24T10:16:22.541Z,24.30
2018-05-24T10:18:50.085Z,24.00
2018-05-24T10:21:18.582Z,24.40
2018-05-24T10:23:47.707Z,24.60
2018-05-24T10:26:15.510Z,24.50
2018-05-24T10:28:43.088Z,24.50
2018-05-24T10:31:10.617Z,24.40
2018-05-24T10:33:38.965Z,23.80
2018-05-24T10:36:06.521Z,23.70
2018-05-24T10:38:34.049Z,24.80
2018-05-24T10:41:01.616Z,25.10
2018-05-24T10:43:30.027Z,23.90
2018-05-24T10:45:57.593Z,23.90
2018-05-24T10:48:25.897Z,24.30
2018-05-24T10:50:53.461Z,24.30
2018-05-24T10:53:20.980Z,24.80
2018-05-24T10:55:48.534Z,25.10
2018-05-24T10:58:16.157Z,23.90
2018-05-24T11:00:44.447Z,24.70
2018-05-24T11:03:12.852Z,25.40
2018-05-24T11:05:40.345Z,25.30
2018-05-24T11:08:08.271Z,25.80
2018-05-24T11:10:36.192Z,25.40
2018-05-24T11:13:03.725Z,25.60
2018-05-24T11:15:31.303Z,26.10
2018-05-24T11:18:00.452Z,24.40
2018-05-24T11:20:27.966Z,24.40
2018-05-24T11:22:55.514Z,24.10
2018-05-24T11:25:23.052Z,25.10
2018-05-24T11:27:51.397Z,25.30
2018-05-24T11:30:18.954Z,25.30
2018-05-24T11:32:46.506Z,25.70
2018-05-24T11:35:14.048Z,25.90
2018-05-24T11:37:42.355Z,25.20
2018-05-24T11:40:09.861Z,25.20
2018-05-24T11:42:37.429Z,24.80
2018-05-24T11:45:04.992Z,24.70
2018-05-24T11:47:32.684Z,24.30
2018-05-24T11:50:00.336Z,24.60
2018-05-24T11:52:27.877Z,25.40
2018-05-24T11:54:56.152Z,25.50
2018-05-24T11:57:23.677Z,25.50
2018-05-24T11:59:51.430Z,25.80
2018-05-24T12:02:19.129Z,26.00
2018-05-24T12:04:46.757Z,25.70
2018-05-24T12:07:15.286Z,25.90
2018-05-24T12:09:43.256Z,25.90
2018-05-24T12:12:11.133Z,26.00
2018-05-24T12:14:38.696Z,26.30
2018-05-24T12:17:06.991Z,25.30
2018-05-24T12:19:34.570Z,25.20
2018-05-24T12:22:02.110Z,25.30
2018-05-24T12:24:29.731Z,25.60
2018-05-24T12:26:57.496Z,25.20
2018-05-24T12:29:25.103Z,25.80
2018-05-24T12:31:52.745Z,25.80
2018-05-24T12:34:20.441Z,24.80
2018-05-24T12:36:47.998Z,25.00
2018-05-24T12:39:15.559Z,24.90
2018-05-24T12:41:43.195Z,24.60
2018-05-24T12:44:10.741Z,24.70
2018-05-24T12:46:38.485Z,25.20
2018-05-24T12:49:07.495Z,25.20
2018-05-24T12:51:35.373Z,25.60
2018-05-24T12:54:02.998Z,25.60
2018-05-24T12:56:31.482Z,25.90
2018-05-24T12:58:59.049Z,25.50
2018-05-24T13:01:26.624Z,25.50
2018-05-24T13:03:54.459Z,25.10
2018-05-24T13:06:22.216Z,25.20
2018-05-24T13:08:50.632Z,26.10
2018-05-24T13:11:18.219Z,26.90
2018-05-24T13:13:45.775Z,26.80
2018-05-24T13:16:14.398Z,26.80
2018-05-24T13:18:42.455Z,25.90
2018-05-24T13:21:10.029Z,25.70
2018-05-24T13:23:37.737Z,25.40
2018-05-24T13:26:05.252Z,25.30
2018-05-24T13:28:33.924Z,25.60
2018-05-24T13:31:01.678Z,25.60
2018-05-24T13:33:30.145Z,26.10
2018-05-24T13:35:57.788Z,25.50
2018-05-24T13:38:27.537Z,25.20
2018-05-24T13:40:55.877Z,25.10
2018-05-24T13:43:23.437Z,25.00
2018-05-24T13:45:52.264Z,24.90
2018-05-24T13:48:21.425Z,24.90
2018-05-24T13:50:52.270Z,24.80
2018-05-24T13:53:20.257Z,24.80
2018-05-24T13:55:48.097Z,24.80
2018-05-24T15:20:24.939Z,24.90
2018-05-24T15:22:52.499Z,19.40
2018-05-24T15:25:20.065Z,19.30
2018-05-24T15:27:47.621Z,19.20
2018-05-24T15:30:15.202Z,19.40
2018-05-24T15:32:42.752Z,19.00
2018-05-24T15:35:10.403Z,19.20
2018-05-24T15:37:38.708Z,19.20
2018-05-24T15:40:06.290Z,19.20
2018-05-24T15:42:33.837Z,19.30
2018-05-24T15:45:01.377Z,19.40
2018-05-24T15:47:28.982Z,19.40
2018-05-24T15:49:56.583Z,19.40
2018-05-24T15:52:24.147Z,19.30
2018-05-24T15:54:51.717Z,19.30
2018-05-24T15:57:19.995Z,19.40
2018-05-24T15:59:48.283Z,19.50
2018-05-24T16:02:16.585Z,19.60
2018-05-24T16:04:44.876Z,19.70
2018-05-24T16:07:13.297Z,19.50
2018-05-24T16:09:40.809Z,19.50
2018-05-24T16:12:08.341Z,19.50
2018-05-24T16:14:35.901Z,19.50
2018-05-24T16:17:03.449Z,19.60
2018-05-24T16:19:31.727Z,19.50
2018-05-24T16:22:00.052Z,19.80
2018-05-24T16:24:27.568Z,19.70
2018-05-24T16:26:55.092Z,19.90
2018-05-24T16:29:22.615Z,20.10
2018-05-24T16:31:50.225Z,20.20
2018-05-24T16:34:17.769Z,20.40
2018-05-24T16:36:45.335Z,20.60
2018-05-24T16:39:12.861Z,20.70
2018-05-24T16:41:40.388Z,20.70
2018-05-24T16:44:08.014Z,20.70
2018-05-24T16:46:35.580Z,20.80
2018-05-24T16:49:03.099Z,20.80
2018-05-24T16:51:30.724Z,20.70
2018-05-24T16:53:58.241Z,20.70
2018-05-24T16:56:25.949Z,20.40
2018-05-24T16:58:53.460Z,20.40
2018-05-24T17:01:20.997Z,20.50
2018-05-24T17:03:48.532Z,20.60
2018-05-24T17:06:16.061Z,20.50
2018-05-24T17:08:43.575Z,20.70
2018-05-24T17:11:11.105Z,20.60
2018-05-24T17:13:38.745Z,20.70
2018-05-24T17:16:07.120Z,20.70
2018-05-24T17:18:34.708Z,20.60
2018-05-24T17:21:03.023Z,20.50
2018-05-24T17:23:30.568Z,20.50
2018-05-24T17:25:58.873Z,20.40
2018-05-24T17:28:26.431Z,20.30
2018-05-24T17:30:53.916Z,20.20
2018-05-24T17:33:21.486Z,20.10
2018-05-24T17:35:48.995Z,20.10
2018-05-24T17:38:16.520Z,20.00
2018-05-24T17:40:44.906Z,20.00
2018-05-24T17:43:13.205Z,19.90
2018-05-24T17:45:40.788Z,19.90
2018-05-24T17:48:08.308Z,19.90
2018-05-24T17:50:35.806Z,20.10
2018-05-24T17:53:04.141Z,20.00
2018-05-24T17:55:31.672Z,20.00
2018-05-24T17:57:59.961Z,19.80
2018-05-24T18:00:28.257Z,19.90
2018-05-24T18:02:56.549Z,19.80
2018-05-24T18:05:24.051Z,19.80
2018-05-24T18:07:51.572Z,19.80
2018-05-24T18:10:19.083Z,19.90
2018-05-24T18:12:46.609Z,19.90
2018-05-24T18:15:14.130Z,19.90
2018-05-24T18:17:41.666Z,19.70
2018-05-24T18:20:09.966Z,19.70
2018-05-24T18:22:37.500Z,19.70
2018-05-24T18:25:05.039Z,19.60
2018-05-24T18:27:32.621Z,19.60
2018-05-24T18:30:00.337Z,19.50
2018-05-24T18:32:27.852Z,19.50
2018-05-24T18:34:55.387Z,19.40
2018-05-24T18:37:23.699Z,19.30
2018-05-24T18:39:51.236Z,19.30
2018-05-24T18:42:18.787Z,19.20
2018-05-24T18:44:46.313Z,19.20
2018-05-24T18:47:13.874Z,19.30
2018-05-24T18:49:42.178Z,19.40
2018-05-24T18:52:09.735Z,19.30
2018-05-24T18:54:38.079Z,19.30
2018-05-24T18:57:05.595Z,19.30
2018-05-24T18:59:33.923Z,19.30
2018-05-24T19:02:01.425Z,19.30
2018-05-24T19:04:28.980Z,19.20
2018-05-24T19:06:56.499Z,19.20
2018-05-24T19:09:24.805Z,19.20
2018-05-24T19:11:52.373Z,19.20
2018-05-24T19:14:19.931Z,19.20
2018-05-24T19:16:48.203Z,19.00
2018-05-24T19:19:15.793Z,19.00
2018-05-24T19:21:44.072Z,19.20
2018-05-24T19:24:12.365Z,19.20
2018-05-24T19:26:40.636Z,19.20
2018-05-24T19:29:08.956Z,19.20
2018-05-24T19:31:36.471Z,19.10
2018-05-24T19:34:04.019Z,19.10
2018-05-24T19:36:31.580Z,19.10
2018-05-24T19:38:59.107Z,19.00
2018-05-24T19:41:26.713Z,19.00
2018-05-24T19:43:55.017Z,19.00
2018-05-24T19:46:22.558Z,19.00
2018-05-24T19:48:50.262Z,18.90
2018-05-24T19:51:17.768Z,18.90
2018-05-24T19:53:45.449Z,18.90
2018-05-24T19:56:13.761Z,18.80
2018-05-24T19:58:41.293Z,18.80
2018-05-24T20:01:08.828Z,18.80
2018-05-24T20:03:37.169Z,18.80
2018-05-24T20:06:04.688Z,18.80
2018-05-24T20:08:32.984Z,18.80
2018-05-24T20:11:01.253Z,18.80
2018-05-24T20:13:29.541Z,18.80
2018-05-24T20:15:57.049Z,18.70
2018-05-24T20:18:24.576Z,18.70
2018-05-24T20:20:52.076Z,18.70
2018-05-24T20:23:19.651Z,18.70
2018-05-24T20:25:47.212Z,18.60
2018-05-24T20:28:15.484Z,18.60
2018-05-24T20:30:43.005Z,18.60
2018-05-24T20:33:10.537Z,18.60
2018-05-24T20:35:38.833Z,18.60
2018-05-24T20:38:07.134Z,18.60
2018-05-24T20:40:34.701Z,18.60
2018-05-24T20:43:02.213Z,18.60
2018-05-24T20:45:29.737Z,18.60
2018-05-24T20:47:58.014Z,18.60
2018-05-24T20:50:26.347Z,18.60
2018-05-24T20:52:53.878Z,18.60
2018-05-24T20:55:21.400Z,18.60
2018-05-24T20:57:48.905Z,18.60
2018-05-24T21:00:16.510Z,18.60
2018-05-24T21:02:44.081Z,18.50
2018-05-24T21:05:11.661Z,18.50
2018-05-24T21:07:40.082Z,18.40
2018-05-24T21:10:07.597Z,18.40
2018-05-24T21:12:35.897Z,18.30
2018-05-24T21:15:04.172Z,18.30
2018-05-24T21:17:31.697Z,18.20
2018-05-24T21:19:59.200Z,18.20
2018-05-24T21:22:26.810Z,18.10
2018-05-24T21:24:55.523Z,18.00
2018-05-24T21:27:23.093Z,18.00
2018-05-24T21:29:50.604Z,18.00
2018-05-24T21:32:18.164Z,18.00
2018-05-24T21:34:45.673Z,17.90
2018-05-24T21:37:13.212Z,17.80
2018-05-24T21:39:40.712Z,17.80
2018-05-24T21:42:08.236Z,17.70
2018-05-24T21:44:35.776Z,17.70
2018-05-24T21:47:04.185Z,17.60
2018-05-24T21:49:31.695Z,17.60
2018-05-24T21:51:59.316Z,17.50
2018-05-24T21:54:27.588Z,17.40
2018-05-24T21:56:55.118Z,17.40
2018-05-24T21:59:22.625Z,17.30
2018-05-24T22:01:50.150Z,17.20
2018-05-24T22:04:17.833Z,17.20
2018-05-24T22:06:45.344Z,17.20
2018-05-24T22:09:12.932Z,17.20
2018-05-24T22:11:41.209Z,17.10
2018-05-24T22:14:08.805Z,17.10
2018-05-24T22:16:36.379Z,17.10
2018-05-24T22:19:03.910Z,17.00
2018-05-24T22:21:31.516Z,16.90
2018-05-24T22:23:59.809Z,16.90
2018-05-24T22:26:28.085Z,16.80
2018-05-24T22:28:56.377Z,16.80
2018-05-24T22:31:24.689Z,16.70
2018-05-24T22:33:52.244Z,16.70
2018-05-24T22:36:20.540Z,16.80
2018-05-24T22:38:48.277Z,16.80
2018-05-24T22:41:15.792Z,16.70
2018-05-24T22:43:43.312Z,16.60
2018-05-24T22:46:10.857Z,16.60
2018-05-24T22:48:38.357Z,16.60
2018-05-24T22:51:06.057Z,16.60
2018-05-24T22:53:33.562Z,16.50
2018-05-24T22:56:01.097Z,16.50
2018-05-24T22:58:29.376Z,16.50
2018-05-24T23:00:56.896Z,16.40
2018-05-24T23:03:24.413Z,16.50
2018-05-24T23:05:51.980Z,16.40
2018-05-24T23:08:19.468Z,16.50
2018-05-24T23:10:46.993Z,16.40
2018-05-24T23:13:14.524Z,16.40
2018-05-24T23:15:42.817Z,16.30
2018-05-24T23:18:11.100Z,16.20
2018-05-24T23:20:39.377Z,16.10
2018-05-24T23:23:06.904Z,16.10
2018-05-24T23:25:34.425Z,16.00
2018-05-24T23:28:02.732Z,15.90
2018-05-24T23:30:30.252Z,15.90
2018-05-24T23:32:57.788Z,15.90
2018-05-24T23:35:25.292Z,15.80
2018-05-24T23:37:52.865Z,15.80
2018-05-24T23:40:20.363Z,15.70
2018-05-24T23:42:47.904Z,15.70
2018-05-24T23:45:15.412Z,15.60
2018-05-24T23:47:42.999Z,15.70
2018-05-24T23:50:11.289Z,15.60
2018-05-24T23:52:39.655Z,15.50
2018-05-24T23:55:07.194Z,15.50
2018-05-24T23:57:34.747Z,15.50
